Time;durP1;ratioP1;P1;durP2;ratioP2;P2;SDS_P1;SDS_P2;PMS_P1;PMS_P2;Temp;Humidity;BMP_temperature;BMP_pressure;BME280_temperature;BME280_humidity;BME280_pressure;Samples;Min_cycle;Max_cycle;Signal;HPM_P1;HPM_P2
2022/12/03 00:00:46;;;;;;;24.88;20.08;;;4.20;99.90;;;;;;2079815;28;20025;-72
2022/12/03 00:01:46;;;;;;;25.27;19.95;;;4.20;99.90;;;;;;2078301;28;20040;-72
2022/12/03 00:02:47;;;;;;;22.38;19.67;;;4.20;99.90;;;;;;2077139;28;20084;-73
2022/12/03 00:03:47;;;;;;;22.33;19.85;;;4.20;99.90;;;;;;2083738;28;20067;-72
2022/12/03 00:04:48;;;;;;;25.02;19.67;;;4.20;99.90;;;;;;2077772;28;20021;-73
2022/12/03 00:05:48;;;;;;;23.70;20.05;;;4.20;99.90;;;;;;2077047;28;20029;-72
2022/12/03 00:06:49;;;;;;;22.77;19.48;;;4.20;99.90;;;;;;2075751;28;20562;-73
2022/12/03 00:07:50;;;;;;;22.17;19.80;;;4.20;99.90;;;;;;2077054;28;20037;-73
2022/12/03 00:08:50;;;;;;;23.50;19.80;;;4.20;99.90;;;;;;2077112;28;20072;-73
2022/12/03 00:09:51;;;;;;;23.48;18.52;;;4.20;99.90;;;;;;2074829;28;20025;-73
2022/12/03 00:10:51;;;;;;;22.65;19.55;;;4.20;99.90;;;;;;2078079;28;20032;-72
2022/12/03 00:11:52;;;;;;;22.85;19.70;;;4.20;99.90;;;;;;2077058;28;20018;-72
2022/12/03 00:12:52;;;;;;;21.90;19.17;;;4.20;99.90;;;;;;2076371;28;20548;-72
2022/12/03 00:13:53;;;;;;;23.13;19.58;;;4.20;99.90;;;;;;2077463;28;20080;-73
2022/12/03 00:14:53;;;;;;;26.52;20.65;;;4.20;99.90;;;;;;2077226;28;20025;-73
2022/12/03 00:15:54;;;;;;;23.92;19.83;;;4.20;99.90;;;;;;2077217;28;20030;-72
2022/12/03 00:16:54;;;;;;;23.75;19.67;;;4.20;99.90;;;;;;2077141;28;20438;-72
2022/12/03 00:17:55;;;;;;;23.67;20.02;;;4.20;99.90;;;;;;2077368;28;20025;-73
2022/12/03 00:18:55;;;;;;;25.25;20.75;;;4.20;99.90;;;;;;2078811;28;20021;-72
2022/12/03 00:19:56;;;;;;;25.08;19.92;;;4.20;99.90;;;;;;2077494;28;20029;-72
2022/12/03 00:20:56;;;;;;;22.00;19.63;;;4.20;99.90;;;;;;2076462;28;20022;-73
2022/12/03 00:21:57;;;;;;;24.13;19.20;;;4.30;99.90;;;;;;2078540;28;20068;-72
2022/12/03 00:22:57;;;;;;;20.95;18.35;;;4.20;99.90;;;;;;2084449;28;20024;-73
2022/12/03 00:23:58;;;;;;;24.23;19.98;;;4.30;99.90;;;;;;2084428;28;20064;-73
2022/12/03 00:24:59;;;;;;;21.30;18.05;;;4.30;99.90;;;;;;2078489;28;20032;-72
2022/12/03 00:25:59;;;;;;;22.02;18.67;;;4.30;99.90;;;;;;2077041;28;20037;-73
2022/12/03 00:27:00;;;;;;;22.75;19.63;;;4.30;99.90;;;;;;2077011;28;20704;-73
2022/12/03 00:28:00;;;;;;;22.85;19.58;;;4.30;99.90;;;;;;2068876;28;20033;-73
2022/12/03 00:29:01;;;;;;;21.08;18.55;;;4.30;99.90;;;;;;2077474;28;20025;-73
2022/12/03 00:30:03;;;;;;;23.58;19.38;;;4.30;99.90;;;;;;2076844;28;20437;-72
2022/12/03 00:31:03;;;;;;;21.20;18.90;;;4.30;99.90;;;;;;2077374;28;20028;-73
2022/12/03 00:32:04;;;;;;;23.25;19.40;;;4.30;99.90;;;;;;2078031;28;20033;-73
2022/12/03 00:33:05;;;;;;;23.60;19.75;;;4.30;99.90;;;;;;2077643;28;20025;-72
2022/12/03 00:34:05;;;;;;;22.48;19.48;;;4.30;99.90;;;;;;2077292;28;20090;-73
2022/12/03 00:35:06;;;;;;;22.35;18.08;;;4.30;99.90;;;;;;2077253;28;20049;-73
2022/12/03 00:36:07;;;;;;;22.83;19.40;;;4.30;99.90;;;;;;2077098;28;20014;-72
2022/12/03 00:37:07;;;;;;;22.15;18.23;;;4.30;99.90;;;;;;2084773;28;20533;-72
2022/12/03 00:38:08;;;;;;;23.85;19.60;;;4.30;99.90;;;;;;2084556;28;20029;-73
2022/12/03 00:39:08;;;;;;;21.65;18.50;;;4.30;99.90;;;;;;2075915;28;20026;-73
2022/12/03 00:40:10;;;;;;;21.17;18.88;;;4.30;99.90;;;;;;2076241;28;20485;-72
2022/12/03 00:41:11;;;;;;;23.00;18.80;;;4.30;99.90;;;;;;2076978;28;20024;-72
2022/12/03 00:42:12;;;;;;;21.98;19.13;;;4.30;99.90;;;;;;2077505;28;20021;-72
2022/12/03 00:43:13;;;;;;;21.05;18.17;;;4.30;99.90;;;;;;2076505;28;20131;-73
2022/12/03 00:44:13;;;;;;;20.83;18.58;;;4.30;99.90;;;;;;2078274;28;20059;-72
2022/12/03 00:45:14;;;;;;;22.40;19.35;;;4.30;99.90;;;;;;2077980;28;20045;-73
2022/12/03 00:46:14;;;;;;;21.75;18.80;;;4.30;99.90;;;;;;2085349;28;20026;-73
2022/12/03 00:47:15;;;;;;;21.55;18.63;;;4.30;99.90;;;;;;2084814;28;20060;-72
2022/12/03 00:48:15;;;;;;;23.90;19.42;;;4.30;99.90;;;;;;2076944;28;20500;-72
2022/12/03 00:49:16;;;;;;;22.00;17.92;;;4.30;99.90;;;;;;2076116;28;20064;-72
2022/12/03 00:50:16;;;;;;;23.25;20.05;;;4.30;99.90;;;;;;2077646;28;20060;-72
2022/12/03 00:51:17;;;;;;;22.42;18.98;;;4.30;99.90;;;;;;2075428;28;20040;-72
2022/12/03 00:52:18;;;;;;;24.80;18.92;;;4.30;99.90;;;;;;2078502;28;20385;-72
2022/12/03 00:53:18;;;;;;;21.95;18.90;;;4.30;99.90;;;;;;2077328;28;20087;-72
2022/12/03 00:54:19;;;;;;;22.42;19.02;;;4.30;99.90;;;;;;2077507;28;20440;-73
2022/12/03 00:55:19;;;;;;;21.75;18.98;;;4.30;99.90;;;;;;2085366;28;20021;-73
2022/12/03 00:56:20;;;;;;;22.77;19.25;;;4.30;99.90;;;;;;2077284;28;20554;-72
2022/12/03 00:57:20;;;;;;;22.85;19.02;;;4.30;99.90;;;;;;2077498;28;20022;-72
2022/12/03 00:58:21;;;;;;;22.52;19.10;;;4.30;99.90;;;;;;2075272;28;20026;-72
2022/12/03 00:59:21;;;;;;;19.90;17.73;;;4.30;99.90;;;;;;2077351;28;20151;-73
2022/12/03 01:00:24;;;;;;;22.13;19.35;;;4.30;99.90;;;;;;2077280;28;20040;-73
2022/12/03 01:01:24;;;;;;;22.42;19.02;;;4.30;99.90;;;;;;2076018;28;20017;-72
2022/12/03 01:02:25;;;;;;;22.77;19.10;;;4.30;99.90;;;;;;2074872;28;20053;-72
2022/12/03 01:03:26;;;;;;;23.67;19.67;;;4.30;99.90;;;;;;2078501;28;20089;-72
2022/12/03 01:04:26;;;;;;;22.50;19.23;;;4.30;99.90;;;;;;2084620;28;20541;-72
2022/12/03 01:05:27;;;;;;;22.75;19.10;;;4.30;99.90;;;;;;2076932;28;20523;-72
2022/12/03 01:06:27;;;;;;;23.00;19.30;;;4.30;99.90;;;;;;2075956;28;20056;-73
2022/12/03 01:07:28;;;;;;;23.08;20.08;;;4.30;99.90;;;;;;2078313;28;20036;-72
2022/12/03 01:08:28;;;;;;;22.35;19.17;;;4.30;99.90;;;;;;2075888;28;20508;-72
2022/12/03 01:09:30;;;;;;;24.15;19.77;;;4.30;99.90;;;;;;2077661;28;20088;-72
2022/12/03 01:10:30;;;;;;;21.15;18.63;;;4.30;99.90;;;;;;2075901;28;20048;-72
2022/12/03 01:11:37;;;;;;;23.30;19.77;;;4.30;99.90;;;;;;2076946;28;20026;-73
2022/12/03 01:12:37;;;;;;;22.55;19.95;;;4.30;99.90;;;;;;2075700;28;20394;-73
2022/12/03 01:13:38;;;;;;;24.92;19.60;;;4.30;99.90;;;;;;2077904;28;20072;-73
2022/12/03 01:14:39;;;;;;;24.77;19.48;;;4.30;99.90;;;;;;2076094;28;20560;-72
2022/12/03 01:15:39;;;;;;;24.35;20.95;;;4.20;99.90;;;;;;2075696;28;20030;-73
2022/12/03 01:16:40;;;;;;;24.38;19.90;;;4.20;99.90;;;;;;2078037;28;20075;-73
2022/12/03 01:17:41;;;;;;;21.95;18.88;;;4.20;99.90;;;;;;2084559;28;20029;-72
2022/12/03 01:18:41;;;;;;;22.42;18.63;;;4.20;99.90;;;;;;2084835;28;20056;-73
2022/12/03 01:19:43;;;;;;;23.63;19.60;;;4.20;99.90;;;;;;2076036;28;20503;-73
2022/12/03 01:20:43;;;;;;;23.25;19.65;;;4.30;99.90;;;;;;2076177;28;20026;-73
2022/12/03 01:21:47;;;;;;;22.67;19.85;;;4.20;99.90;;;;;;2077338;28;20022;-72
2022/12/03 01:22:47;;;;;;;24.38;21.05;;;4.20;99.90;;;;;;2076560;28;20029;-72
2022/12/03 01:23:48;;;;;;;21.77;19.40;;;4.20;99.90;;;;;;2076813;28;20017;-72
2022/12/03 01:24:48;;;;;;;24.23;19.95;;;4.30;99.90;;;;;;2077699;28;20029;-73
2022/12/03 01:25:49;;;;;;;23.60;19.98;;;4.20;99.90;;;;;;2075757;28;20033;-72
2022/12/03 01:26:49;;;;;;;22.35;19.33;;;4.30;99.90;;;;;;2077863;28;20063;-72
2022/12/03 01:27:50;;;;;;;23.90;19.98;;;4.30;99.90;;;;;;2077895;28;20067;-72
2022/12/03 01:28:51;;;;;;;23.55;20.35;;;4.30;99.90;;;;;;2075397;28;20042;-73
2022/12/03 01:29:52;;;;;;;23.27;19.33;;;4.30;99.90;;;;;;2075968;28;20049;-73
2022/12/03 01:32:20;;;;;;;22.95;18.80;;;4.20;99.90;;;;;;2076099;28;20034;-73
2022/12/03 01:33:21;;;;;;;26.25;20.17;;;4.20;99.90;;;;;;2077617;28;20134;-73
2022/12/03 01:34:22;;;;;;;24.67;20.80;;;4.20;99.90;;;;;;2077203;28;20095;-72
2022/12/03 01:35:22;;;;;;;23.85;20.08;;;4.20;99.90;;;;;;2076457;28;20022;-73
2022/12/03 01:36:23;;;;;;;23.23;20.75;;;4.20;99.90;;;;;;2077918;28;20076;-73
2022/12/03 01:37:25;;;;;;;24.73;20.63;;;4.20;99.90;;;;;;2076678;28;20018;-72
2022/12/03 01:38:25;;;;;;;22.73;19.23;;;4.20;99.90;;;;;;2078054;28;20022;-73
2022/12/03 01:39:26;;;;;;;24.55;20.17;;;4.30;99.90;;;;;;2077425;28;20048;-73
2022/12/03 01:40:26;;;;;;;23.02;20.17;;;4.30;99.90;;;;;;2077269;28;20093;-73
2022/12/03 01:41:28;;;;;;;25.52;20.13;;;4.30;99.90;;;;;;2077356;28;20035;-72
2022/12/03 01:42:32;;;;;;;23.02;20.02;;;4.30;99.90;;;;;;2074163;28;20044;-73
2022/12/03 01:43:33;;;;;;;23.95;20.30;;;4.30;99.90;;;;;;2075167;28;20079;-73
2022/12/03 01:44:38;;;;;;;23.92;20.15;;;4.30;99.90;;;;;;2071731;28;20121;-73
2022/12/03 01:45:38;;;;;;;23.33;19.90;;;4.30;99.90;;;;;;2075192;28;20034;-73
2022/12/03 01:46:40;;;;;;;24.15;20.42;;;4.30;99.90;;;;;;2076152;28;20036;-73
2022/12/03 01:47:41;;;;;;;24.98;20.27;;;4.30;99.90;;;;;;2081803;28;20036;-73
2022/12/03 01:48:41;;;;;;;22.58;19.75;;;4.30;99.90;;;;;;2085038;28;20021;-73
2022/12/03 01:49:59;;;;;;;24.45;20.15;;;4.30;99.90;;;;;;2075215;28;20520;-72
2022/12/03 01:51:00;;;;;;;27.70;22.50;;;4.30;99.90;;;;;;2076781;28;20025;-73
2022/12/03 01:52:01;;;;;;;25.13;20.58;;;4.30;99.90;;;;;;2075954;28;20025;-72
2022/12/03 01:53:03;;;;;;;22.83;20.02;;;4.30;99.90;;;;;;2076593;28;20490;-73
2022/12/03 01:54:04;;;;;;;23.50;20.48;;;4.30;99.90;;;;;;2075778;28;20127;-72
2022/12/03 01:55:11;;;;;;;25.08;20.50;;;4.30;99.90;;;;;;2076608;28;20026;-72
2022/12/03 01:56:14;;;;;;;25.88;20.45;;;4.30;99.90;;;;;;2076061;28;20033;-73
2022/12/03 01:57:26;;;;;;;25.55;21.63;;;4.30;99.90;;;;;;2076255;28;20445;-73
2022/12/03 01:58:28;;;;;;;25.67;21.00;;;4.30;99.90;;;;;;2075024;28;20056;-73
2022/12/03 01:59:36;;;;;;;25.02;19.85;;;4.30;99.90;;;;;;2076959;28;20485;-73
2022/12/03 02:00:36;;;;;;;23.48;20.30;;;4.30;99.90;;;;;;2076761;28;20104;-74
2022/12/03 02:01:39;;;;;;;25.98;21.15;;;4.30;99.90;;;;;;2077411;28;20029;-74
2022/12/03 02:02:40;;;;;;;26.77;21.77;;;4.30;99.90;;;;;;2076526;28;20025;-74
2022/12/03 02:03:41;;;;;;;28.30;22.17;;;4.30;99.90;;;;;;2077466;28;20032;-74
2022/12/03 02:04:42;;;;;;;26.55;22.48;;;4.30;99.90;;;;;;2076224;28;20191;-74
2022/12/03 02:05:43;;;;;;;27.02;21.63;;;4.30;99.90;;;;;;2077146;28;20088;-74
2022/12/03 02:06:43;;;;;;;27.33;21.42;;;4.30;99.90;;;;;;2076951;28;20036;-74
2022/12/03 02:07:44;;;;;;;27.35;21.50;;;4.30;99.90;;;;;;2075371;28;20037;-74
2022/12/03 02:08:45;;;;;;;26.65;21.98;;;4.30;99.90;;;;;;2078584;28;20026;-74
2022/12/03 02:09:46;;;;;;;27.02;21.23;;;4.30;99.90;;;;;;2077737;28;20083;-73
2022/12/03 02:10:47;;;;;;;29.08;22.42;;;4.30;99.90;;;;;;2075374;28;20032;-74
2022/12/03 02:11:49;;;;;;;24.88;20.40;;;4.30;99.90;;;;;;2078389;28;20691;-74
2022/12/03 02:13:08;;;;;;;28.90;22.27;;;4.30;99.90;;;;;;2075326;28;20434;-74
2022/12/03 02:14:16;;;;;;;28.73;22.50;;;4.30;99.90;;;;;;2075732;28;20250;-74
2022/12/03 02:15:17;;;;;;;28.00;21.73;;;4.30;99.90;;;;;;2077616;28;20079;-74
2022/12/03 02:16:17;;;;;;;29.83;22.83;;;4.30;99.90;;;;;;2076891;28;20055;-74
2022/12/03 02:17:18;;;;;;;28.77;22.95;;;4.30;99.90;;;;;;2085618;28;20111;-73
2022/12/03 02:18:19;;;;;;;30.60;23.38;;;4.30;99.90;;;;;;2084987;28;21214;-74
2022/12/03 02:19:28;;;;;;;29.80;21.88;;;4.30;99.90;;;;;;2076952;28;20021;-74
2022/12/03 02:20:31;;;;;;;28.15;22.52;;;4.30;99.90;;;;;;2078066;28;20112;-74
2022/12/03 02:21:48;;;;;;;28.20;21.83;;;4.30;99.90;;;;;;2078347;28;20051;-74
2022/12/03 02:23:01;;;;;;;26.08;21.10;;;4.30;99.90;;;;;;2075609;28;20134;-74
2022/12/03 02:24:10;;;;;;;25.23;21.48;;;4.30;99.90;;;;;;2074033;28;20051;-73
2022/12/03 02:25:20;;;;;;;30.13;22.90;;;4.30;99.90;;;;;;2077014;28;20025;-74
2022/12/03 02:26:21;;;;;;;27.77;22.67;;;4.30;99.90;;;;;;2074015;28;20033;-74
2022/12/03 02:27:22;;;;;;;31.35;24.35;;;4.30;99.90;;;;;;2075205;28;20493;-74
2022/12/03 02:28:22;;;;;;;28.40;22.70;;;4.30;99.90;;;;;;2077629;28;20404;-74
2022/12/03 02:29:23;;;;;;;27.40;22.90;;;4.30;99.90;;;;;;2076356;28;20104;-74
2022/12/03 02:30:26;;;;;;;29.38;23.20;;;4.30;99.90;;;;;;2077259;28;20022;-74
2022/12/03 02:31:27;;;;;;;30.45;23.48;;;4.30;99.90;;;;;;2078166;28;20025;-74
2022/12/03 02:32:27;;;;;;;27.20;22.38;;;4.30;99.90;;;;;;2076218;28;20113;-74
2022/12/03 02:33:28;;;;;;;29.15;22.83;;;4.30;99.90;;;;;;2076015;28;20760;-74
2022/12/03 02:34:41;;;;;;;30.13;23.17;;;4.30;99.90;;;;;;2076977;28;20025;-74
2022/12/03 02:35:43;;;;;;;32.13;23.08;;;4.30;99.90;;;;;;2076426;28;20631;-74
2022/12/03 02:36:43;;;;;;;29.83;22.23;;;4.30;99.90;;;;;;2076606;28;20025;-74
2022/12/03 02:37:45;;;;;;;28.92;22.10;;;4.30;99.90;;;;;;2074721;28;20523;-74
2022/12/03 02:38:48;;;;;;;31.05;23.05;;;4.30;99.90;;;;;;2077288;28;20452;-74
2022/12/03 02:39:55;;;;;;;30.00;24.25;;;4.30;99.90;;;;;;2077025;28;20451;-74
2022/12/03 02:40:59;;;;;;;28.73;22.20;;;4.30;99.90;;;;;;2076114;28;20064;-74
2022/12/03 02:43:20;;;;;;;29.33;22.30;;;4.30;99.90;;;;;;2082107;28;20026;-74
2022/12/03 02:44:21;;;;;;;30.67;23.15;;;4.30;99.90;;;;;;2077193;28;20029;-74
2022/12/03 02:45:33;;;;;;;31.73;23.60;;;4.30;99.90;;;;;;2075662;28;20466;-74
2022/12/03 02:46:34;;;;;;;31.92;24.40;;;4.30;99.90;;;;;;2076527;28;20136;-74
2022/12/03 02:47:40;;;;;;;30.42;22.33;;;4.30;99.90;;;;;;2075548;28;20469;-74
2022/12/03 02:48:40;;;;;;;30.80;23.63;;;4.30;99.90;;;;;;2076622;28;20715;-74
2022/12/03 02:49:41;;;;;;;32.10;22.35;;;4.20;99.90;;;;;;2075798;28;20369;-74
2022/12/03 02:50:53;;;;;;;30.95;24.55;;;4.30;99.90;;;;;;2076382;28;20487;-74
2022/12/03 02:51:53;;;;;;;32.13;23.30;;;4.30;99.90;;;;;;2076550;28;20442;-74
2022/12/03 02:52:57;;;;;;;31.20;23.38;;;4.20;99.90;;;;;;2075832;28;20417;-74
2022/12/03 02:53:58;;;;;;;32.85;23.95;;;4.20;99.90;;;;;;2077085;28;20025;-74
2022/12/03 02:54:59;;;;;;;31.27;23.33;;;4.20;99.90;;;;;;2075761;28;20030;-74
2022/12/03 02:56:02;;;;;;;32.05;22.88;;;4.20;99.90;;;;;;2084555;28;20029;-74
2022/12/03 02:57:03;;;;;;;32.47;22.63;;;4.20;99.90;;;;;;2077174;28;20372;-74
2022/12/03 02:58:04;;;;;;;31.77;23.73;;;4.20;99.90;;;;;;2075125;28;20037;-74
2022/12/03 02:59:05;;;;;;;31.23;22.80;;;4.20;99.90;;;;;;2076111;28;20029;-74
2022/12/03 03:00:07;;;;;;;33.22;22.83;;;4.20;99.90;;;;;;2076238;28;20048;-73
2022/12/03 03:01:08;;;;;;;30.10;22.20;;;4.20;99.90;;;;;;2075181;28;20041;-74
2022/12/03 03:02:10;;;;;;;34.30;24.92;;;4.10;99.90;;;;;;2076618;28;20386;-74
2022/12/03 03:03:11;;;;;;;33.63;23.95;;;4.10;99.90;;;;;;2074743;28;20034;-74
2022/12/03 03:04:12;;;;;;;31.30;23.15;;;4.10;99.90;;;;;;2077314;28;20183;-74
2022/12/03 03:05:14;;;;;;;33.90;23.75;;;4.10;99.90;;;;;;2076548;28;20025;-73
2022/12/03 03:06:16;;;;;;;33.85;23.83;;;4.20;99.90;;;;;;2075286;28;20026;-74
2022/12/03 03:07:17;;;;;;;33.15;23.13;;;4.20;99.90;;;;;;2075467;28;20161;-74
2022/12/03 03:08:18;;;;;;;32.28;23.20;;;4.20;99.90;;;;;;2076618;28;20036;-74
2022/12/03 03:09:19;;;;;;;31.65;24.38;;;4.20;99.90;;;;;;2076721;28;20048;-74
2022/12/03 03:10:22;;;;;;;35.65;24.60;;;4.20;99.90;;;;;;2074861;28;20565;-74
2022/12/03 03:11:23;;;;;;;31.08;23.77;;;4.20;99.90;;;;;;2075912;28;20022;-73
2022/12/03 03:12:24;;;;;;;33.72;24.60;;;4.20;99.90;;;;;;2073771;28;20433;-74
2022/12/03 03:13:25;;;;;;;34.25;24.15;;;4.20;99.90;;;;;;2075045;28;20455;-74
2022/12/03 03:14:26;;;;;;;33.67;23.88;;;4.20;99.90;;;;;;2074836;28;20021;-74
2022/12/03 03:15:26;;;;;;;36.42;25.20;;;4.20;99.90;;;;;;2073709;28;20099;-74
2022/12/03 03:16:27;;;;;;;32.90;25.10;;;4.30;99.90;;;;;;2084651;28;20036;-74
2022/12/03 03:17:28;;;;;;;35.72;24.70;;;4.20;99.90;;;;;;2084703;28;20447;-74
2022/12/03 03:18:28;;;;;;;32.72;23.95;;;4.20;99.90;;;;;;2075742;28;20045;-74
2022/12/03 03:19:29;;;;;;;35.20;25.63;;;4.20;99.90;;;;;;2075840;28;20083;-74
2022/12/03 03:20:30;;;;;;;37.10;25.05;;;4.20;99.90;;;;;;2075121;28;20111;-74
2022/12/03 03:21:30;;;;;;;36.58;25.38;;;4.20;99.90;;;;;;2076296;28;20028;-74
2022/12/03 03:22:33;;;;;;;36.88;25.10;;;4.20;99.90;;;;;;2075377;28;20058;-74
2022/12/03 03:23:33;;;;;;;37.25;26.52;;;4.20;99.90;;;;;;2075368;28;20840;-74
2022/12/03 03:24:34;;;;;;;32.50;23.92;;;4.20;99.90;;;;;;2077046;28;20033;-74
2022/12/03 03:25:34;;;;;;;35.78;26.33;;;4.20;99.90;;;;;;2077268;28;20060;-74
2022/12/03 03:26:35;;;;;;;36.28;25.17;;;4.20;99.90;;;;;;2077739;28;20029;-74
2022/12/03 03:27:36;;;;;;;37.33;24.40;;;4.20;99.90;;;;;;2077121;28;20390;-74
2022/12/03 03:28:41;;;;;;;32.92;23.88;;;4.20;99.90;;;;;;2076617;28;20045;-74
2022/12/03 03:29:41;;;;;;;38.63;26.00;;;4.20;99.90;;;;;;2075123;28;20030;-74
2022/12/03 03:30:43;;;;;;;35.08;24.20;;;4.20;99.90;;;;;;2082096;28;20029;-74
2022/12/03 03:31:45;;;;;;;32.83;23.13;;;4.20;99.90;;;;;;2084384;28;20029;-74
2022/12/03 03:32:45;;;;;;;35.42;24.80;;;4.20;99.90;;;;;;2075361;28;20029;-74
2022/12/03 03:33:48;;;;;;;35.83;24.13;;;4.20;99.90;;;;;;2073502;28;20046;-74
2022/12/03 03:34:48;;;;;;;36.25;25.35;;;4.20;99.90;;;;;;2075986;28;20025;-74
2022/12/03 03:35:49;;;;;;;36.00;25.40;;;4.20;99.90;;;;;;2073360;28;20290;-74
2022/12/03 03:36:50;;;;;;;36.88;24.67;;;4.20;99.90;;;;;;2074702;28;20029;-74
2022/12/03 03:37:55;;;;;;;34.80;24.10;;;4.20;99.90;;;;;;2076777;28;20432;-74
2022/12/03 03:38:56;;;;;;;35.28;24.30;;;4.30;99.90;;;;;;2076615;28;20055;-73
2022/12/03 03:39:57;;;;;;;38.70;25.10;;;4.30;99.90;;;;;;2077371;28;20060;-74
2022/12/03 03:41:00;;;;;;;38.75;25.88;;;4.20;99.90;;;;;;2076639;28;20032;-74
2022/12/03 03:42:01;;;;;;;38.40;26.02;;;4.20;99.90;;;;;;2075617;28;20018;-74
2022/12/03 03:43:02;;;;;;;35.08;24.73;;;4.30;99.90;;;;;;2078179;28;20033;-74
2022/12/03 03:44:05;;;;;;;38.20;25.30;;;4.20;99.90;;;;;;2077433;28;20125;-74
2022/12/03 03:45:07;;;;;;;39.40;25.55;;;4.30;99.90;;;;;;2077587;28;20543;-74
2022/12/03 03:46:08;;;;;;;38.92;24.20;;;4.30;99.90;;;;;;2078659;28;20034;-73
2022/12/03 03:47:09;;;;;;;41.20;26.75;;;4.30;99.90;;;;;;2076941;28;20148;-74
2022/12/03 03:48:11;;;;;;;40.42;24.95;;;4.30;99.90;;;;;;2077618;28;20050;-74
2022/12/03 03:49:12;;;;;;;37.92;24.50;;;4.20;99.90;;;;;;2076066;28;20116;-74
2022/12/03 03:50:13;;;;;;;38.25;25.40;;;4.30;99.90;;;;;;2078423;28;20033;-74
2022/12/03 03:51:15;;;;;;;42.13;25.30;;;4.30;99.90;;;;;;2076635;28;20072;-73
2022/12/03 03:52:18;;;;;;;36.20;24.63;;;4.30;99.90;;;;;;2077706;28;20049;-74
2022/12/03 03:53:20;;;;;;;39.15;25.55;;;4.30;99.90;;;;;;2076862;28;20021;-74
2022/12/03 03:54:22;;;;;;;41.25;26.30;;;4.30;99.90;;;;;;2078111;28;20083;-74
2022/12/03 03:55:22;;;;;;;40.08;25.13;;;4.30;99.90;;;;;;2077379;28;20033;-74
2022/12/03 03:56:24;;;;;;;42.42;25.20;;;4.20;99.90;;;;;;2075698;28;20024;-73
2022/12/03 03:57:25;;;;;;;36.90;23.83;;;4.20;99.90;;;;;;2077880;28;20116;-74
2022/12/03 03:58:26;;;;;;;35.50;23.23;;;4.20;99.90;;;;;;2078837;28;20083;-74
2022/12/03 03:59:28;;;;;;;42.53;25.48;;;4.20;99.90;;;;;;2076940;28;20385;-74
2022/12/03 04:00:29;;;;;;;37.95;23.60;;;4.20;99.90;;;;;;2074347;28;20132;-74
2022/12/03 04:01:30;;;;;;;39.15;24.52;;;4.30;99.90;;;;;;2077353;28;20112;-74
2022/12/03 04:02:31;;;;;;;39.13;24.17;;;4.30;99.90;;;;;;2076186;28;20021;-74
2022/12/03 04:03:33;;;;;;;43.63;26.05;;;4.20;99.90;;;;;;2076838;28;20024;-74
2022/12/03 04:04:35;;;;;;;37.95;24.17;;;4.30;99.90;;;;;;2077837;28;20025;-74
2022/12/03 04:05:36;;;;;;;38.63;23.95;;;4.30;99.90;;;;;;2078374;28;20037;-74
2022/12/03 04:06:36;;;;;;;40.30;24.73;;;4.20;99.90;;;;;;2078920;28;20022;-74
2022/12/03 04:07:37;;;;;;;43.03;25.15;;;4.20;99.90;;;;;;2076703;28;20026;-74
2022/12/03 04:08:37;;;;;;;42.08;25.58;;;4.20;99.90;;;;;;2077660;28;20136;-74
2022/12/03 04:09:38;;;;;;;39.08;24.50;;;4.20;99.90;;;;;;2077019;28;20453;-74
2022/12/03 04:13:16;;;;;;;39.78;24.77;;;4.20;99.90;;;;;;2078392;28;20525;-74
2022/12/03 04:14:17;;;;;;;39.75;24.15;;;4.20;99.90;;;;;;2076921;28;20449;-74
2022/12/03 04:15:17;;;;;;;40.47;24.67;;;4.20;99.90;;;;;;2084456;28;20013;-74
2022/12/03 04:16:18;;;;;;;40.38;25.55;;;4.20;99.90;;;;;;2083311;28;20021;-73
2022/12/03 04:17:18;;;;;;;37.58;24.02;;;4.20;99.90;;;;;;2077913;28;20029;-74
2022/12/03 04:19:38;;;;;;;39.15;24.02;;;4.20;99.90;;;;;;2077464;28;20021;-74
2022/12/03 04:20:39;;;;;;;41.88;25.75;;;4.10;99.90;;;;;;2078395;28;20022;-74
2022/12/03 04:22:59;;;;;;;45.55;25.42;;;4.10;99.90;;;;;;2076654;28;20026;-74
2022/12/03 04:24:00;;;;;;;41.50;25.50;;;4.10;99.90;;;;;;2078741;28;20069;-74
2022/12/03 04:28:58;;;;;;;40.97;25.90;;;4.10;99.90;;;;;;2077972;28;20041;-74
2022/12/03 04:29:58;;;;;;;39.90;25.58;;;4.00;99.90;;;;;;2077543;28;20108;-74
2022/12/03 04:30:59;;;;;;;41.38;25.33;;;4.00;99.90;;;;;;2077642;28;20844;-74
2022/12/03 04:35:57;;;;;;;42.90;26.67;;;4.00;99.90;;;;;;2078212;28;20033;-74
2022/12/03 04:36:57;;;;;;;39.72;25.95;;;4.00;99.90;;;;;;2077578;28;20068;-74
2022/12/03 04:38:00;;;;;;;43.90;25.08;;;4.00;99.90;;;;;;2078325;28;20052;-74
2022/12/03 04:39:00;;;;;;;46.45;26.38;;;4.00;99.90;;;;;;2078745;28;20488;-74
2022/12/03 04:40:59;;;;;;;44.53;24.95;;;4.00;99.90;;;;;;2078610;28;20747;-74
2022/12/03 04:41:21;;;;;;;41.00;25.42;;;4.00;99.90;;;;;;2077016;28;20393;-74
2022/12/03 04:42:22;;;;;;;41.05;24.95;;;3.90;99.90;;;;;;2077846;28;20425;-74
2022/12/03 04:44:31;;;;;;;49.60;27.42;;;3.90;99.90;;;;;;2059467;28;20054;-74
2022/12/03 04:44:58;;;;;;;;;;;3.90;99.90;;;;;;2077442;28;20366;-74
2022/12/03 04:45:59;;;;;;;44.40;27.30;;;3.80;99.90;;;;;;2077960;28;19948;-74
2022/12/03 04:47:03;;;;;;;41.55;25.17;;;3.90;99.90;;;;;;2074827;28;20034;-74
2022/12/03 04:48:03;;;;;;;41.20;25.80;;;3.90;99.90;;;;;;2078639;28;20029;-74
2022/12/03 04:49:04;;;;;;;48.05;27.85;;;3.90;99.90;;;;;;2076720;28;20044;-74
2022/12/03 04:50:05;;;;;;;46.22;27.23;;;3.90;99.90;;;;;;2075751;28;20033;-74
2022/12/03 04:51:06;;;;;;;46.50;25.58;;;3.90;99.90;;;;;;2076644;28;20037;-74
2022/12/03 04:52:07;;;;;;;43.75;24.60;;;3.90;99.90;;;;;;2076909;28;20036;-74
2022/12/03 04:53:08;;;;;;;44.50;25.85;;;3.90;99.90;;;;;;2085304;28;20904;-74
2022/12/03 04:54:09;;;;;;;46.20;25.45;;;3.90;99.90;;;;;;2076115;28;20079;-74
2022/12/03 04:55:09;;;;;;;48.33;27.10;;;3.90;99.90;;;;;;2075473;28;20100;-74
2022/12/03 04:56:10;;;;;;;43.83;25.25;;;3.90;99.90;;;;;;2078508;28;20041;-74
2022/12/03 04:57:11;;;;;;;44.88;26.38;;;3.90;99.90;;;;;;2077942;28;20507;-74
2022/12/03 04:58:11;;;;;;;45.90;25.67;;;3.90;99.90;;;;;;2075602;28;20060;-74
2022/12/03 04:59:13;;;;;;;44.55;25.48;;;3.90;99.90;;;;;;2078927;28;20683;-74
2022/12/03 05:00:14;;;;;;;41.33;25.67;;;3.90;99.90;;;;;;2077410;28;20022;-74
2022/12/03 05:01:15;;;;;;;46.38;25.90;;;3.90;99.90;;;;;;2077506;28;20152;-74
2022/12/03 05:02:15;;;;;;;43.45;26.13;;;3.90;99.90;;;;;;2077178;28;20026;-74
2022/12/03 05:03:16;;;;;;;43.55;25.80;;;3.90;99.90;;;;;;2077658;28;20021;-73
2022/12/03 05:04:16;;;;;;;41.97;25.10;;;3.90;99.90;;;;;;2076827;28;20140;-74
2022/12/03 05:05:17;;;;;;;47.08;26.73;;;4.00;99.90;;;;;;2084706;28;20024;-74
2022/12/03 05:06:17;;;;;;;44.55;26.67;;;3.90;99.90;;;;;;2084413;28;20813;-74
2022/12/03 05:07:18;;;;;;;43.40;25.75;;;3.90;99.90;;;;;;2077869;28;20501;-74
2022/12/03 05:08:18;;;;;;;47.22;26.55;;;3.90;99.90;;;;;;2076802;28;20703;-74
2022/12/03 05:09:19;;;;;;;41.58;25.38;;;3.90;99.90;;;;;;2076942;28;20025;-74
2022/12/03 05:10:20;;;;;;;42.95;25.63;;;3.90;99.90;;;;;;2077568;28;20450;-74
2022/12/03 05:11:21;;;;;;;44.13;25.90;;;3.90;99.90;;;;;;2085570;28;20048;-74
2022/12/03 05:12:21;;;;;;;45.67;26.40;;;3.90;99.90;;;;;;2082571;28;20025;-74
2022/12/03 05:13:22;;;;;;;40.47;24.40;;;3.90;99.90;;;;;;2077237;28;20071;-74
2022/12/03 05:14:22;;;;;;;45.35;26.67;;;4.00;99.90;;;;;;2076677;28;20033;-74
2022/12/03 05:15:23;;;;;;;44.72;26.02;;;4.00;99.90;;;;;;2076544;28;22248;-74
2022/12/03 05:16:24;;;;;;;41.72;25.15;;;3.90;99.90;;;;;;2076803;28;20025;-74
2022/12/03 05:17:24;;;;;;;43.28;25.85;;;3.90;99.90;;;;;;2076458;28;20034;-74
2022/12/03 05:18:25;;;;;;;43.72;25.80;;;3.90;99.90;;;;;;2078281;28;20041;-74
2022/12/03 05:20:40;;;;;;;45.03;26.65;;;3.90;99.90;;;;;;2076649;28;20374;-74
2022/12/03 05:20:46;;;;;;;47.03;25.77;;;3.90;99.90;;;;;;2076021;28;20031;-74
2022/12/03 05:21:46;;;;;;;47.28;26.67;;;3.90;99.90;;;;;;2084443;28;20380;-74
2022/12/03 05:22:47;;;;;;;45.45;27.00;;;3.90;99.90;;;;;;2082101;28;20075;-74
2022/12/03 05:23:47;;;;;;;42.97;25.20;;;3.90;99.90;;;;;;2085465;28;20029;-74
2022/12/03 05:24:48;;;;;;;42.60;25.73;;;3.90;99.90;;;;;;2084407;28;20029;-74
2022/12/03 05:25:49;;;;;;;45.40;26.83;;;3.90;99.90;;;;;;2077094;28;20477;-74
2022/12/03 05:26:49;;;;;;;45.67;26.00;;;3.90;99.90;;;;;;2077712;28;20034;-74
2022/12/03 05:27:50;;;;;;;42.97;25.73;;;3.90;99.90;;;;;;2076884;28;20369;-74
2022/12/03 05:28:50;;;;;;;46.17;25.67;;;3.90;99.90;;;;;;2076265;28;20029;-74
2022/12/03 05:29:51;;;;;;;45.88;25.90;;;3.90;99.90;;;;;;2077839;28;20057;-74
2022/12/03 05:30:52;;;;;;;43.50;25.90;;;3.90;99.90;;;;;;2077249;28;20021;-74
2022/12/03 05:31:52;;;;;;;42.47;26.17;;;3.90;99.90;;;;;;2078518;28;20029;-74
2022/12/03 05:32:53;;;;;;;46.75;26.30;;;4.00;99.90;;;;;;2076429;28;20044;-73
2022/12/03 05:33:54;;;;;;;47.45;26.10;;;3.90;99.90;;;;;;2077387;28;20485;-74